Time;durP1;ratioP1;P1;durP2;ratioP2;P2;SDS_P1;SDS_P2;PMS_P1;PMS_P2;Temp;Humidity;BMP_temperature;BMP_pressure;BME280_temperature;BME280_humidity;BME280_pressure;Samples;Min_cycle;Max_cycle;Signal;HPM_P1;HPM_P2
2021/07/31 00:01:08;;;;;;;7.78;4.80;;;27.00;56.80;;;;;;4359940;32;20058;-34
2021/07/31 00:03:35;;;;;;;7.57;3.75;;;27.10;57.20;;;;;;4359610;32;20466;-35
2021/07/31 00:06:03;;;;;;;6.15;3.80;;;27.10;57.20;;;;;;4359661;32;20643;-35
2021/07/31 00:08:30;;;;;;;8.82;4.30;;;27.20;57.10;;;;;;4359562;32;20070;-35
2021/07/31 00:10:56;;;;;;;5.75;4.12;;;27.30;57.00;;;;;;4359981;32;20148;-35
2021/07/31 00:13:23;;;;;;;7.60;4.18;;;27.40;56.80;;;;;;4345571;32;20093;-35
2021/07/31 00:15:50;;;;;;;6.95;4.03;;;27.40;56.60;;;;;;4359517;32;20146;-35
2021/07/31 00:18:16;;;;;;;7.87;4.70;;;27.50;56.10;;;;;;4359237;32;20105;-36
2021/07/31 00:20:43;;;;;;;5.07;4.07;;;27.50;56.40;;;;;;4359444;32;20078;-35
2021/07/31 00:23:09;;;;;;;5.82;3.37;;;27.60;56.60;;;;;;4359535;32;20086;-35
2021/07/31 00:25:36;;;;;;;4.85;3.78;;;27.70;56.50;;;;;;4359664;32;20505;-36
2021/07/31 00:28:03;;;;;;;7.18;4.78;;;27.70;56.40;;;;;;4333144;32;20137;-35
2021/07/31 00:30:29;;;;;;;5.57;4.55;;;27.80;56.10;;;;;;4359827;32;20058;-37
2021/07/31 00:32:56;;;;;;;8.25;4.20;;;27.90;55.80;;;;;;4359230;32;20188;-36
2021/07/31 00:35:23;;;;;;;7.78;4.50;;;28.00;55.80;;;;;;4359461;32;20078;-35
2021/07/31 00:37:49;;;;;;;8.40;4.35;;;28.00;55.60;;;;;;4359212;32;20147;-35
2021/07/31 00:40:15;;;;;;;5.18;4.40;;;28.00;55.20;;;;;;4359391;32;20089;-34
2021/07/31 00:42:42;;;;;;;7.35;4.22;;;28.10;55.30;;;;;;4359059;32;20157;-35
2021/07/31 00:45:10;;;;;;;7.93;3.95;;;28.10;55.40;;;;;;4359056;32;20065;-35
2021/07/31 00:47:40;;;;;;;4.25;3.72;;;28.10;55.40;;;;;;4359079;32;20085;-34
2021/07/31 00:50:07;;;;;;;5.35;3.92;;;28.20;55.30;;;;;;4359218;32;20065;-34
2021/07/31 00:52:34;;;;;;;3.70;3.15;;;28.20;54.80;;;;;;4331447;33;20071;-34
2021/07/31 00:55:00;;;;;;;10.82;5.20;;;28.20;54.40;;;;;;4315816;33;20154;-34
2021/07/31 00:57:27;;;;;;;6.18;3.67;;;28.30;54.30;;;;;;4315769;33;20074;-34
2021/07/31 00:59:53;;;;;;;3.78;3.10;;;28.30;54.30;;;;;;4324671;33;20110;-34
2021/07/31 01:02:19;;;;;;;6.53;3.42;;;28.30;54.10;;;;;;4327649;33;20079;-34
2021/07/31 01:04:46;;;;;;;6.60;4.15;;;28.30;53.60;;;;;;4327505;33;20151;-35
2021/07/31 01:07:12;;;;;;;5.28;4.00;;;28.40;53.70;;;;;;4327573;33;20063;-35
2021/07/31 01:09:39;;;;;;;5.37;3.10;;;28.40;53.60;;;;;;4327325;33;20063;-35
2021/07/31 01:12:06;;;;;;;8.02;4.30;;;28.30;53.60;;;;;;4327573;33;20429;-35
2021/07/31 01:14:32;;;;;;;6.78;4.22;;;28.30;53.80;;;;;;4328732;33;20067;-34
2021/07/31 01:16:58;;;;;;;6.30;4.93;;;28.30;53.80;;;;;;4329238;33;20070;-35
2021/07/31 01:19:25;;;;;;;5.43;4.37;;;28.30;53.70;;;;;;4327714;33;20163;-34
2021/07/31 01:21:51;;;;;;;7.65;3.53;;;28.30;53.80;;;;;;4328668;33;20621;-35
2021/07/31 01:24:17;;;;;;;5.57;4.30;;;28.30;54.00;;;;;;4328893;33;20104;-35
2021/07/31 01:26:46;;;;;;;5.75;4.12;;;28.30;53.90;;;;;;4328915;33;20067;-36
2021/07/31 01:29:17;;;;;;;5.55;4.07;;;28.30;53.80;;;;;;4328913;33;20095;-35
2021/07/31 01:31:45;;;;;;;5.55;3.85;;;28.20;53.70;;;;;;4329146;33;20060;-35
2021/07/31 01:34:11;;;;;;;5.43;4.05;;;28.30;53.90;;;;;;4328853;33;20087;-36
2021/07/31 01:36:37;;;;;;;6.95;4.47;;;28.20;53.80;;;;;;4328757;33;20078;-36
2021/07/31 01:39:04;;;;;;;5.50;4.25;;;28.20;53.70;;;;;;4329117;33;20092;-38
2021/07/31 01:41:30;;;;;;;4.37;3.90;;;28.30;53.90;;;;;;4329000;33;20078;-36
2021/07/31 01:43:57;;;;;;;5.78;4.50;;;28.30;53.80;;;;;;4328955;33;20069;-36
2021/07/31 01:46:23;;;;;;;5.65;3.40;;;28.30;53.90;;;;;;4328352;33;20493;-36
2021/07/31 01:48:50;;;;;;;5.18;3.83;;;28.40;53.30;;;;;;4328639;33;20058;-36
2021/07/31 01:51:16;;;;;;;6.62;3.60;;;28.50;53.00;;;;;;4331546;33;20073;-36
2021/07/31 01:53:43;;;;;;;7.60;3.90;;;28.60;53.00;;;;;;4343134;33;20638;-36
2021/07/31 01:56:09;;;;;;;3.80;3.15;;;28.70;52.80;;;;;;4299102;33;20071;-36
2021/07/31 01:58:36;;;;;;;6.82;3.50;;;28.80;52.30;;;;;;4315423;33;20086;-36
2021/07/31 02:01:02;;;;;;;3.95;3.35;;;28.90;52.20;;;;;;4314348;33;20056;-35
2021/07/31 02:03:28;;;;;;;7.40;4.37;;;28.90;51.70;;;;;;4325633;33;20239;-36
2021/07/31 02:05:55;;;;;;;5.37;3.97;;;29.00;51.70;;;;;;4325874;33;20087;-36
2021/07/31 02:08:21;;;;;;;6.47;3.22;;;29.00;51.40;;;;;;4325934;33;20575;-36
2021/07/31 02:10:48;;;;;;;8.05;3.70;;;29.00;51.30;;;;;;4313480;33;20075;-37
2021/07/31 02:13:14;;;;;;;4.80;3.12;;;29.00;51.20;;;;;;4313525;33;20071;-37
2021/07/31 02:15:44;;;;;;;3.25;2.95;;;29.00;50.90;;;;;;4326030;33;20078;-37
2021/07/31 02:18:11;;;;;;;8.45;3.28;;;29.00;50.80;;;;;;4314079;33;20077;-35
2021/07/31 02:20:38;;;;;;;4.70;3.53;;;28.90;50.90;;;;;;4325913;33;20677;-36
2021/07/31 02:23:04;;;;;;;5.82;3.62;;;28.90;50.90;;;;;;4326274;33;20083;-36
2021/07/31 02:25:31;;;;;;;6.37;4.55;;;28.90;51.10;;;;;;4326113;33;20185;-37
2021/07/31 02:27:57;;;;;;;5.72;3.55;;;28.80;51.00;;;;;;4339849;33;20054;-35
2021/07/31 02:30:24;;;;;;;4.95;3.75;;;28.80;51.10;;;;;;4343364;32;20088;-35
2021/07/31 02:32:50;;;;;;;5.15;3.40;;;28.80;51.20;;;;;;4342741;32;20110;-35
2021/07/31 02:35:17;;;;;;;5.18;3.55;;;28.90;51.20;;;;;;4343108;32;20154;-37
2021/07/31 02:37:43;;;;;;;5.18;3.47;;;28.90;51.30;;;;;;4341244;33;20081;-36
2021/07/31 02:40:10;;;;;;;4.45;3.37;;;28.90;51.40;;;;;;4342835;32;20486;-36
2021/07/31 02:42:36;;;;;;;5.87;3.95;;;28.90;51.00;;;;;;4343193;32;20228;-35
2021/07/31 02:45:04;;;;;;;5.40;3.87;;;29.00;51.30;;;;;;4343444;32;20058;-37
2021/07/31 02:47:31;;;;;;;6.85;3.15;;;29.00;51.50;;;;;;4343146;32;20058;-37
2021/07/31 02:49:57;;;;;;;6.80;3.85;;;29.00;51.10;;;;;;4342674;33;20106;-36
2021/07/31 02:52:24;;;;;;;8.05;4.87;;;28.90;51.20;;;;;;4342725;33;20059;-38
2021/07/31 02:54:51;;;;;;;3.62;3.33;;;29.00;51.30;;;;;;4342991;33;20074;-36
2021/07/31 02:57:17;;;;;;;3.67;3.37;;;29.00;51.30;;;;;;4312865;33;20101;-37
2021/07/31 02:59:43;;;;;;;7.32;3.22;;;28.90;51.40;;;;;;4336695;33;20607;-35
2021/07/31 03:02:10;;;;;;;4.87;3.62;;;28.90;51.80;;;;;;4328213;33;20074;-36
2021/07/31 03:04:36;;;;;;;3.72;3.37;;;28.90;51.90;;;;;;4340570;32;20074;-36
2021/07/31 03:07:03;;;;;;;6.70;4.10;;;28.90;51.90;;;;;;4340173;33;20059;-36
2021/07/31 03:09:29;;;;;;;7.35;4.80;;;28.80;52.30;;;;;;4340152;33;20087;-36
2021/07/31 03:11:56;;;;;;;6.28;4.32;;;28.80;52.70;;;;;;4340045;33;20565;-38
2021/07/31 03:14:22;;;;;;;6.45;3.95;;;28.80;53.20;;;;;;4340036;33;20078;-38
2021/07/31 03:16:49;;;;;;;7.10;5.85;;;28.70;53.50;;;;;;4340244;33;20069;-38
2021/07/31 03:19:18;;;;;;;8.18;5.53;;;28.70;53.50;;;;;;4340048;33;20095;-38
2021/07/31 03:21:44;;;;;;;8.13;4.90;;;28.70;53.50;;;;;;4328645;33;20074;-36
2021/07/31 03:24:11;;;;;;;7.60;6.43;;;28.60;53.40;;;;;;4343262;33;20179;-36
2021/07/31 03:26:37;;;;;;;6.35;4.68;;;28.60;53.60;;;;;;4342949;33;20070;-36
2021/07/31 03:29:03;;;;;;;5.20;4.75;;;28.60;53.80;;;;;;4342489;33;20066;-37
2021/07/31 03:31:30;;;;;;;6.25;5.00;;;28.60;53.80;;;;;;4342692;33;20541;-37
2021/07/31 03:33:56;;;;;;;9.95;5.10;;;28.60;53.90;;;;;;4343448;33;20059;-38
2021/07/31 03:36:23;;;;;;;7.07;5.55;;;28.60;53.80;;;;;;4345109;32;20067;-38
2021/07/31 03:38:49;;;;;;;10.43;6.45;;;28.70;54.00;;;;;;4345128;32;20067;-38
2021/07/31 03:41:16;;;;;;;7.15;5.57;;;28.70;53.90;;;;;;4343643;33;20168;-37
2021/07/31 03:43:42;;;;;;;7.03;4.87;;;28.60;54.20;;;;;;4345175;32;20155;-39
2021/07/31 03:46:08;;;;;;;13.02;6.32;;;28.60;54.60;;;;;;4345662;32;20088;-37
2021/07/31 03:48:35;;;;;;;8.95;5.72;;;28.60;54.80;;;;;;4345001;32;20069;-36
2021/07/31 03:51:01;;;;;;;9.98;5.72;;;28.50;54.60;;;;;;4344947;32;20094;-37
2021/07/31 03:53:28;;;;;;;9.00;6.35;;;28.40;54.60;;;;;;4345064;33;20073;-37
2021/07/31 03:55:54;;;;;;;8.85;5.57;;;28.40;54.70;;;;;;4344522;33;20620;-36
2021/07/31 03:58:20;;;;;;;11.88;6.43;;;28.30;54.70;;;;;;4327512;33;20137;-33
2021/07/31 04:00:47;;;;;;;7.80;6.60;;;28.20;54.90;;;;;;4327418;33;20162;-35
2021/07/31 04:03:13;;;;;;;5.50;4.97;;;28.00;55.00;;;;;;4327577;33;20082;-34
2021/07/31 04:05:40;;;;;;;13.13;5.60;;;27.90;55.50;;;;;;4327996;33;20565;-33
2021/07/31 04:08:06;;;;;;;7.50;4.70;;;27.80;56.30;;;;;;4298297;33;20523;-34
2021/07/31 04:10:36;;;;;;;11.85;5.03;;;27.70;56.70;;;;;;4298241;33;20155;-34
2021/07/31 04:13:03;;;;;;;5.82;4.40;;;27.80;57.20;;;;;;4298009;33;20154;-34
2021/07/31 04:15:29;;;;;;;5.78;5.18;;;27.90;57.40;;;;;;4286209;33;20150;-34
2021/07/31 04:17:56;;;;;;;10.20;5.18;;;28.00;57.80;;;;;;4285979;33;20177;-35
2021/07/31 04:20:22;;;;;;;6.70;4.85;;;28.00;57.90;;;;;;4297825;33;20252;-37
2021/07/31 04:22:49;;;;;;;6.90;4.80;;;28.20;58.10;;;;;;4298058;33;20523;-35
2021/07/31 04:25:15;;;;;;;7.97;4.43;;;28.30;57.60;;;;;;4297825;33;20075;-36
2021/07/31 04:27:42;;;;;;;6.35;4.93;;;28.50;57.50;;;;;;4298107;33;20075;-34
2021/07/31 04:30:08;;;;;;;7.68;4.72;;;28.70;57.10;;;;;;4298150;33;20083;-35
2021/07/31 04:32:35;;;;;;;6.55;4.53;;;28.80;56.40;;;;;;4297833;33;20087;-35
2021/07/31 04:35:03;;;;;;;5.68;4.50;;;29.00;56.10;;;;;;4303394;33;20075;-35
2021/07/31 04:37:29;;;;;;;7.20;4.53;;;29.10;55.70;;;;;;4282902;33;20588;-35
2021/07/31 04:39:56;;;;;;;5.45;4.22;;;29.10;54.90;;;;;;4307634;33;20071;-35
2021/07/31 04:42:24;;;;;;;10.20;5.75;;;29.10;54.70;;;;;;4312651;33;20084;-36
2021/07/31 04:44:51;;;;;;;9.25;5.05;;;29.10;54.80;;;;;;4312502;33;20105;-36
2021/07/31 04:47:18;;;;;;;7.12;4.32;;;29.10;55.00;;;;;;4312052;33;20075;-36
2021/07/31 04:49:44;;;;;;;10.80;5.43;;;29.20;55.10;;;;;;4312575;33;20095;-39
2021/07/31 04:52:11;;;;;;;7.40;4.68;;;29.20;54.60;;;;;;4303761;33;20559;-39
2021/07/31 04:54:41;;;;;;;8.90;5.35;;;29.20;54.40;;;;;;4297779;33;20089;-36
2021/07/31 04:57:11;;;;;;;10.15;4.32;;;29.10;54.50;;;;;;4297449;33;20142;-35
2021/07/31 04:59:38;;;;;;;9.63;5.85;;;29.00;54.50;;;;;;4308109;33;20087;-36
2021/07/31 05:02:04;;;;;;;5.30;4.32;;;29.00;54.70;;;;;;4312204;33;20119;-36
2021/07/31 05:04:31;;;;;;;5.10;3.83;;;28.90;54.80;;;;;;4312303;33;20508;-35
2021/07/31 05:06:58;;;;;;;8.13;5.30;;;28.90;54.80;;;;;;4311566;33;20058;-36
2021/07/31 05:09:24;;;;;;;10.07;4.70;;;28.90;54.90;;;;;;4340228;33;20083;-36
2021/07/31 05:11:51;;;;;;;4.90;4.40;;;28.80;55.00;;;;;;4344002;33;20066;-35
2021/07/31 05:14:17;;;;;;;8.27;4.95;;;28.80;55.30;;;;;;4343964;33;20067;-37
2021/07/31 05:16:45;;;;;;;7.32;5.43;;;28.80;55.40;;;;;;4343865;33;20066;-35
2021/07/31 05:19:12;;;;;;;11.40;5.03;;;28.80;55.60;;;;;;4344206;33;20177;-35
2021/07/31 05:21:38;;;;;;;6.55;4.65;;;28.90;55.80;;;;;;4343838;33;20078;-36
2021/07/31 05:24:05;;;;;;;6.53;4.62;;;29.00;55.80;;;;;;4343216;33;20078;-35
2021/07/31 05:26:31;;;;;;;5.32;4.53;;;29.10;55.10;;;;;;4343302;33;20569;-35
2021/07/31 05:28:58;;;;;;;9.63;4.95;;;29.20;55.00;;;;;;4343314;33;20066;-35
2021/07/31 05:31:24;;;;;;;6.22;4.93;;;29.30;54.90;;;;;;4343609;33;20148;-35
2021/07/31 05:33:50;;;;;;;5.47;4.97;;;29.50;54.00;;;;;;4343502;33;20057;-36
2021/07/31 05:36:17;;;;;;;8.65;4.95;;;29.50;53.60;;;;;;4343306;33;20071;-35
2021/07/31 05:38:43;;;;;;;8.57;5.15;;;29.60;53.20;;;;;;4343605;33;20063;-34
2021/07/31 05:41:17;;;;;;;6.30;5.37;;;29.60;53.10;;;;;;4343395;33;20074;-36
2021/07/31 05:43:43;;;;;;;9.23;5.80;;;29.60;53.00;;;;;;4343785;33;20085;-36
2021/07/31 05:46:10;;;;;;;12.37;7.35;;;29.60;53.40;;;;;;4329060;33;20606;-34
2021/07/31 05:48:36;;;;;;;7.62;5.87;;;29.50;53.40;;;;;;4342857;33;20542;-35
2021/07/31 05:51:03;;;;;;;8.07;5.37;;;29.50;53.70;;;;;;4343253;33;20448;-36
2021/07/31 05:53:29;;;;;;;5.10;4.70;;;29.50;53.90;;;;;;4343238;33;20618;-35
2021/07/31 05:55:56;;;;;;;6.15;5.25;;;29.50;53.50;;;;;;4343245;33;20091;-35
2021/07/31 05:58:23;;;;;;;7.43;5.43;;;29.50;53.60;;;;;;4345770;32;20073;-35
2021/07/31 06:00:49;;;;;;;5.62;5.12;;;29.60;53.20;;;;;;4344419;32;20505;-35
2021/07/31 06:03:16;;;;;;;8.65;6.05;;;29.60;53.50;;;;;;4357764;32;20102;-36
2021/07/31 06:05:42;;;;;;;6.72;5.30;;;29.70;53.30;;;;;;4357928;32;20061;-36
2021/07/31 06:08:09;;;;;;;11.45;4.55;;;29.80;54.00;;;;;;4357723;32;20106;-37
2021/07/31 06:10:35;;;;;;;9.30;6.18;;;30.10;53.80;;;;;;4357884;32;20055;-35
2021/07/31 06:13:04;;;;;;;7.32;4.22;;;30.40;52.80;;;;;;4358178;32;20149;-37
2021/07/31 06:15:31;;;;;;;10.50;5.15;;;30.80;52.30;;;;;;4357846;32;20093;-36
2021/07/31 06:17:57;;;;;;;8.98;3.75;;;31.10;51.70;;;;;;4343665;32;20463;-36
2021/07/31 06:20:24;;;;;;;5.35;3.33;;;31.30;50.70;;;;;;4357762;32;20497;-36
2021/07/31 06:22:50;;;;;;;5.70;3.53;;;31.60;49.10;;;;;;4357566;32;20105;-37
2021/07/31 06:25:17;;;;;;;6.28;4.03;;;31.80;48.30;;;;;;4357993;32;20082;-38
2021/07/31 06:27:43;;;;;;;13.90;4.97;;;32.00;47.80;;;;;;4357730;32;20436;-35
2021/07/31 06:30:10;;;;;;;8.38;3.50;;;32.30;47.00;;;;;;4357809;32;20179;-36
2021/07/31 06:32:36;;;;;;;8.60;4.00;;;32.60;46.30;;;;;;4357318;32;20104;-36
2021/07/31 06:35:04;;;;;;;5.78;3.30;;;33.00;45.40;;;;;;4357705;32;20086;-36
2021/07/31 06:37:30;;;;;;;7.47;4.55;;;33.30;45.10;;;;;;4357870;32;20063;-35
2021/07/31 06:39:56;;;;;;;9.10;3.78;;;33.60;45.20;;;;;;4357872;32;20146;-37
2021/07/31 06:42:23;;;;;;;8.05;3.33;;;33.90;43.70;;;;;;4358193;32;20070;-36
2021/07/31 06:44:51;;;;;;;10.05;4.07;;;34.20;43.40;;;;;;4344082;32;20530;-37
2021/07/31 06:47:18;;;;;;;16.33;4.72;;;34.50;43.40;;;;;;4344549;32;20477;-36
2021/07/31 06:49:44;;;;;;;10.45;3.50;;;34.80;43.30;;;;;;4357871;32;20105;-37
2021/07/31 06:52:13;;;;;;;8.63;3.80;;;35.20;42.30;;;;;;4348561;32;20669;-37
2021/07/31 06:54:40;;;;;;;6.60;3.78;;;35.50;41.50;;;;;;4343020;33;20085;-37
2021/07/31 06:57:09;;;;;;;6.40;3.85;;;35.70;41.00;;;;;;4344169;32;20089;-37
2021/07/31 06:59:39;;;;;;;10.75;4.05;;;35.90;40.60;;;;;;4355904;32;20533;-37
2021/07/31 07:02:05;;;;;;;5.18;3.12;;;35.90;41.20;;;;;;4360571;32;20497;-37
2021/07/31 07:04:32;;;;;;;10.38;4.07;;;36.00;40.10;;;;;;4360819;32;20112;-36
2021/07/31 07:07:01;;;;;;;4.28;3.33;;;36.10;40.20;;;;;;4359962;32;20068;-38
2021/07/31 07:09:28;;;;;;;6.68;3.87;;;36.20;40.20;;;;;;4360412;32;20085;-38
2021/07/31 07:11:56;;;;;;;6.93;3.10;;;36.20;40.20;;;;;;4346858;32;20457;-37
2021/07/31 07:14:22;;;;;;;5.35;2.92;;;36.30;41.00;;;;;;4360545;32;20076;-37
2021/07/31 07:16:49;;;;;;;6.62;2.92;;;36.60;41.00;;;;;;4360777;32;20062;-37
2021/07/31 07:19:15;;;;;;;9.38;4.20;;;37.00;40.80;;;;;;4360691;32;20099;-38
2021/07/31 07:21:42;;;;;;;9.95;4.00;;;37.40;40.20;;;;;;4360173;32;20089;-41
2021/07/31 07:24:08;;;;;;;6.78;3.55;;;37.90;39.60;;;;;;4360608;32;20149;-37
2021/07/31 07:26:34;;;;;;;4.62;3.45;;;38.30;38.90;;;;;;4359897;32;20164;-38
2021/07/31 07:29:01;;;;;;;5.40;3.08;;;38.60;38.20;;;;;;4360310;32;20058;-37
2021/07/31 07:31:27;;;;;;;9.52;4.15;;;38.90;37.90;;;;;;4346320;32;20090;-38
2021/07/31 07:33:56;;;;;;;5.72;3.35;;;39.00;37.50;;;;;;4360020;32;20485;-39
2021/07/31 07:36:22;;;;;;;12.68;3.33;;;39.20;37.10;;;;;;4360364;32;20514;-38
2021/07/31 07:38:49;;;;;;;4.12;3.25;;;39.30;37.00;;;;;;4360196;32;20139;-37
2021/07/31 07:41:15;;;;;;;5.43;3.58;;;39.30;36.80;;;;;;4359889;32;20104;-38
2021/07/31 07:43:42;;;;;;;4.00;3.42;;;39.20;36.90;;;;;;4360001;32;20086;-37
2021/07/31 07:46:15;;;;;;;5.37;2.90;;;39.00;36.90;;;;;;4359562;32;20062;-37
2021/07/31 07:48:43;;;;;;;3.70;3.37;;;38.80;36.80;;;;;;4359861;32;20086;-37
2021/07/31 07:51:09;;;;;;;3.62;2.90;;;38.70;37.50;;;;;;4357185;32;20154;-37
2021/07/31 07:53:36;;;;;;;4.32;2.83;;;38.60;37.50;;;;;;4344858;33;20083;-38
2021/07/31 07:56:03;;;;;;;4.78;3.67;;;38.60;37.10;;;;;;4344922;33;20139;-38
2021/07/31 07:58:29;;;;;;;4.25;2.87;;;38.60;37.00;;;;;;4331854;33;20097;-38
2021/07/31 08:00:56;;;;;;;4.68;2.75;;;38.50;36.80;;;;;;4344840;32;20073;-37
2021/07/31 08:03:22;;;;;;;8.73;2.92;;;38.40;36.70;;;;;;4344959;32;20070;-36
2021/07/31 08:05:49;;;;;;;5.12;3.25;;;38.40;37.10;;;;;;4344348;33;20163;-38
2021/07/31 08:08:15;;;;;;;6.45;2.87;;;38.30;37.10;;;;;;4344122;32;20175;-38
2021/07/31 08:10:41;;;;;;;6.85;3.78;;;38.10;36.70;;;;;;4344438;32;20522;-37
2021/07/31 08:13:08;;;;;;;5.82;2.67;;;37.80;37.10;;;;;;4344698;33;20542;-37
2021/07/31 08:15:34;;;;;;;4.40;3.53;;;37.50;37.30;;;;;;4344715;33;20062;-37
2021/07/31 08:18:01;;;;;;;5.68;2.05;;;37.40;37.80;;;;;;4343433;32;20063;-37
2021/07/31 08:20:28;;;;;;;4.05;2.80;;;37.20;38.10;;;;;;4344884;32;20152;-39
2021/07/31 08:22:54;;;;;;;3.67;2.00;;;37.10;38.30;;;;;;4344770;32;20102;-38
2021/07/31 08:25:21;;;;;;;4.60;2.95;;;37.10;38.60;;;;;;4344481;32;20064;-38
2021/07/31 08:27:47;;;;;;;3.70;3.10;;;37.20;38.90;;;;;;4344040;32;20075;-37
2021/07/31 08:30:14;;;;;;;4.80;3.55;;;37.40;38.70;;;;;;4343045;33;20067;-37
2021/07/31 08:32:43;;;;;;;5.90;3.72;;;37.70;38.70;;;;;;4344033;32;20149;-37
2021/07/31 08:35:10;;;;;;;3.55;3.10;;;37.90;38.90;;;;;;4344048;32;20070;-37
2021/07/31 08:37:40;;;;;;;6.80;3.65;;;38.10;38.30;;;;;;4344303;32;20613;-36
2021/07/31 08:40:11;;;;;;;3.33;2.62;;;38.20;37.70;;;;;;4330577;33;20078;-36
2021/07/31 08:42:40;;;;;;;3.00;2.37;;;38.30;37.60;;;;;;4344290;32;20138;-36
2021/07/31 08:45:07;;;;;;;4.15;2.78;;;38.30;37.30;;;;;;4343933;32;20180;-38
2021/07/31 08:47:34;;;;;;;3.33;2.10;;;38.40;37.00;;;;;;4344003;32;20147;-36
2021/07/31 08:50:01;;;;;;;5.25;2.47;;;38.50;36.60;;;;;;4342416;33;20094;-38
2021/07/31 08:52:28;;;;;;;5.40;2.53;;;38.50;36.60;;;;;;4332180;33;20075;-38
2021/07/31 08:54:54;;;;;;;8.00;2.90;;;38.40;36.30;;;;;;4327967;33;20471;-39
2021/07/31 08:57:21;;;;;;;5.50;2.67;;;38.10;36.50;;;;;;4329289;33;20087;-36
2021/07/31 08:59:47;;;;;;;4.12;2.58;;;38.00;36.30;;;;;;4352052;32;20171;-38
2021/07/31 09:02:13;;;;;;;4.57;2.20;;;37.80;36.50;;;;;;4359043;32;20145;-37
2021/07/31 09:04:44;;;;;;;3.10;2.30;;;37.50;36.60;;;;;;4344968;32;20062;-36
2021/07/31 09:07:14;;;;;;;2.90;1.98;;;37.40;36.90;;;;;;4358427;32;20058;-36
2021/07/31 09:09:40;;;;;;;5.40;2.33;;;37.20;38.30;;;;;;4358706;32;20155;-36
2021/07/31 09:12:09;;;;;;;3.47;2.25;;;37.10;38.10;;;;;;4358765;32;20109;-38
2021/07/31 09:14:43;;;;;;;3.70;2.22;;;37.00;38.10;;;;;;4344532;32;20105;-38
2021/07/31 09:17:25;;;;;;;4.95;2.12;;;37.00;38.40;;;;;;4325989;33;20182;-37
2021/07/31 09:19:52;;;;;;;5.57;2.50;;;36.90;37.70;;;;;;4326280;33;20118;-37
2021/07/31 09:22:19;;;;;;;3.03;2.45;;;36.70;37.40;;;;;;4326574;33;20570;-38
2021/07/31 09:25:06;;;;;;;5.05;2.10;;;36.60;37.40;;;;;;4314550;33;20156;-36
2021/07/31 09:27:33;;;;;;;5.35;2.60;;;36.50;37.50;;;;;;4316336;33;20087;-37
2021/07/31 09:30:03;;;;;;;2.95;2.58;;;36.40;37.70;;;;;;4326575;33;20503;-37
2021/07/31 09:32:40;;;;;;;4.97;2.83;;;36.20;38.30;;;;;;4326277;33;20070;-38
2021/07/31 09:35:23;;;;;;;5.35;2.97;;;36.10;38.50;;;;;;4326243;33;20067;-38
2021/07/31 09:37:51;;;;;;;3.30;3.00;;;36.10;39.10;;;;;;4326418;33;20551;-36
2021/07/31 09:40:32;;;;;;;4.32;3.60;;;36.10;39.30;;;;;;4326382;33;20138;-38
2021/07/31 09:43:17;;;;;;;5.20;3.55;;;36.10;39.30;;;;;;4326188;33;20168;-37
2021/07/31 09:45:44;;;;;;;4.10;3.78;;;36.00;39.20;;;;;;4326199;33;20067;-37
2021/07/31 09:48:11;;;;;;;7.62;4.03;;;36.10;39.60;;;;;;4326312;33;20090;-37
2021/07/31 09:50:47;;;;;;;4.35;3.95;;;36.10;39.70;;;;;;4326115;33;20161;-37
2021/07/31 09:53:17;;;;;;;9.10;3.83;;;36.40;39.60;;;;;;4311560;33;20083;-37
2021/07/31 09:55:58;;;;;;;6.40;4.05;;;36.70;40.00;;;;;;4341543;33;20062;-38
2021/07/31 09:58:27;;;;;;;7.37;4.35;;;37.00;38.70;;;;;;4343254;33;20063;-38
2021/07/31 10:00:54;;;;;;;6.20;3.58;;;37.20;38.40;;;;;;4317855;33;20138;-37
2021/07/31 10:03:21;;;;;;;6.15;3.83;;;37.20;37.90;;;;;;4343239;33;20070;-37
2021/07/31 10:05:48;;;;;;;3.62;3.33;;;37.30;37.80;;;;;;4343189;33;20171;-38
2021/07/31 10:08:15;;;;;;;4.57;3.47;;;37.30;37.60;;;;;;4343151;33;20195;-38
2021/07/31 10:10:41;;;;;;;4.82;3.47;;;37.30;37.40;;;;;;4343170;33;20077;-38
2021/07/31 10:13:08;;;;;;;3.87;3.37;;;37.30;37.60;;;;;;4343248;33;20059;-36
2021/07/31 10:15:34;;;;;;;4.05;3.60;;;37.40;37.30;;;;;;4342694;32;20082;-38
2021/07/31 10:18:10;;;;;;;4.22;3.50;;;37.50;37.70;;;;;;4343200;33;20496;-38
2021/07/31 10:20:37;;;;;;;4.43;3.83;;;37.60;37.50;;;;;;4329712;33;20161;-37
2021/07/31 10:23:03;;;;;;;4.82;3.37;;;37.70;37.00;;;;;;4329450;33;20570;-39
2021/07/31 10:25:30;;;;;;;4.05;3.75;;;37.80;37.10;;;;;;4329580;33;20062;-38
2021/07/31 10:28:24;;;;;;;5.05;4.12;;;37.80;37.20;;;;;;4328961;33;20075;-39
2021/07/31 10:30:51;;;;;;;4.15;3.62;;;37.80;37.60;;;;;;4343799;33;20074;-38
2021/07/31 10:33:44;;;;;;;4.68;3.95;;;37.80;36.90;;;;;;4345880;33;20063;-39
2021/07/31 10:36:33;;;;;;;4.32;3.92;;;37.70;36.90;;;;;;4345753;33;20149;-38
2021/07/31 10:39:27;;;;;;;4.97;4.45;;;37.60;37.10;;;;;;4345653;33;20551;-38
2021/07/31 10:42:00;;;;;;;6.20;4.57;;;37.40;37.40;;;;;;4345862;33;20071;-37
2021/07/31 10:44:27;;;;;;;6.70;4.10;;;37.30;37.70;;;;;;4345696;33;20108;-38
2021/07/31 10:47:22;;;;;;;6.32;4.15;;;37.20;38.00;;;;;;4345756;33;20082;-37
2021/07/31 10:49:49;;;;;;;6.37;4.82;;;37.10;38.40;;;;;;4345725;33;20086;-43
2021/07/31 10:52:51;;;;;;;4.90;4.40;;;36.90;38.40;;;;;;4341478;32;20094;-38
2021/07/31 10:55:19;;;;;;;6.85;4.75;;;36.70;38.90;;;;;;4360971;32;20492;-39
2021/07/31 10:57:54;;;;;;;7.53;4.87;;;36.60;39.10;;;;;;4347096;32;20066;-37
2021/07/31 11:00:39;;;;;;;5.12;4.22;;;36.40;39.80;;;;;;4360500;32;20602;-39
2021/07/31 11:03:20;;;;;;;6.90;4.60;;;36.40;39.90;;;;;;4360664;32;20063;-39
2021/07/31 11:05:50;;;;;;;5.75;4.80;;;36.20;40.50;;;;;;4360330;32;20137;-40
2021/07/31 11:08:23;;;;;;;4.95;4.45;;;36.10;40.50;;;;;;4360433;32;20093;-38
2021/07/31 11:11:00;;;;;;;5.15;4.05;;;36.20;40.20;;;;;;4360231;32;20109;-40
2021/07/31 11:13:30;;;;;;;5.78;4.82;;;36.30;39.90;;;;;;4360362;32;20074;-39
2021/07/31 11:15:56;;;;;;;7.45;3.80;;;36.30;39.60;;;;;;4360509;32;20121;-39
2021/07/31 11:18:23;;;;;;;6.15;4.70;;;36.40;39.70;;;;;;4360442;32;20070;-39
2021/07/31 11:20:50;;;;;;;7.80;3.92;;;36.40;39.40;;;;;;4360324;32;20613;-38
2021/07/31 11:23:18;;;;;;;7.43;4.20;;;36.50;39.10;;;;;;4359998;32;20155;-39
2021/07/31 11:25:44;;;;;;;8.50;4.53;;;36.60;38.60;;;;;;4334453;32;20534;-38
2021/07/31 11:28:11;;;;;;;6.62;4.03;;;36.70;38.70;;;;;;4359776;32;20592;-39
2021/07/31 11:30:42;;;;;;;5.22;4.20;;;36.80;38.40;;;;;;4359825;32;20101;-38
2021/07/31 11:33:22;;;;;;;5.25;3.55;;;37.00;38.10;;;;;;4360357;32;20082;-40
2021/07/31 11:35:52;;;;;;;6.85;3.55;;;37.10;37.80;;;;;;4360210;32;20152;-39
2021/07/31 11:38:38;;;;;;;3.78;3.47;;;37.20;37.60;;;;;;4359984;32;20183;-38
2021/07/31 11:41:14;;;;;;;5.03;3.80;;;37.30;37.90;;;;;;4360496;32;20100;-39
2021/07/31 11:43:52;;;;;;;6.12;3.35;;;37.30;37.70;;;;;;4359672;32;20057;-38
2021/07/31 11:46:45;;;;;;;3.40;2.90;;;37.20;37.90;;;;;;4360176;32;20066;-38
2021/07/31 11:49:24;;;;;;;2.67;2.47;;;37.30;37.40;;;;;;4359906;32;20050;-39
2021/07/31 11:51:55;;;;;;;6.32;2.90;;;37.30;36.90;;;;;;4346117;32;20057;-38
2021/07/31 11:54:22;;;;;;;3.15;2.25;;;37.30;36.50;;;;;;4359469;32;20078;-38
2021/07/31 11:56:50;;;;;;;5.37;2.78;;;37.30;36.10;;;;;;4345878;32;20078;-39
2021/07/31 11:59:42;;;;;;;7.32;3.30;;;37.20;36.10;;;;;;4343523;33;20102;-38
2021/07/31 12:02:09;;;;;;;3.30;2.78;;;37.20;36.50;;;;;;4327775;33;20101;-38
2021/07/31 12:04:51;;;;;;;10.77;3.90;;;37.20;36.20;;;;;;4327505;33;20075;-39
2021/07/31 12:07:24;;;;;;;4.45;2.85;;;37.30;36.30;;;;;;4327739;33;20071;-39
2021/07/31 12:10:06;;;;;;;7.78;3.90;;;37.40;35.90;;;;;;4327503;33;20143;-38
2021/07/31 12:12:33;;;;;;;3.62;3.00;;;37.40;35.60;;;;;;4327809;33;20508;-38
2021/07/31 12:15:21;;;;;;;2.83;2.55;;;37.50;35.50;;;;;;4327615;33;20150;-38
2021/07/31 12:17:57;;;;;;;3.97;3.10;;;37.60;35.20;;;;;;4327641;33;20495;-38
2021/07/31 12:20:43;;;;;;;4.43;3.40;;;37.70;35.00;;;;;;4327694;33;20095;-39
2021/07/31 12:23:14;;;;;;;5.12;3.17;;;37.70;35.00;;;;;;4327740;33;20071;-39
2021/07/31 12:26:00;;;;;;;4.55;3.28;;;37.60;34.60;;;;;;4314934;33;20507;-38
2021/07/31 12:28:45;;;;;;;3.17;2.87;;;37.60;35.00;;;;;;4327245;33;20070;-38
2021/07/31 12:31:30;;;;;;;5.50;3.03;;;37.60;34.80;;;;;;4327122;33;20520;-38
2021/07/31 12:33:58;;;;;;;3.22;2.92;;;37.50;35.20;;;;;;4327454;33;20117;-37
2021/07/31 12:36:25;;;;;;;3.87;3.28;;;37.60;35.10;;;;;;4315209;33;20467;-38
2021/07/31 12:38:53;;;;;;;5.47;2.87;;;37.70;34.60;;;;;;4334969;33;20140;-36
2021/07/31 12:41:28;;;;;;;4.12;3.62;;;37.70;34.20;;;;;;4344038;32;20078;-36
2021/07/31 12:43:54;;;;;;;4.72;3.35;;;37.80;34.10;;;;;;4344453;32;20079;-38
2021/07/31 12:46:21;;;;;;;6.07;2.80;;;37.80;33.60;;;;;;4344512;32;20054;-37
2021/07/31 12:48:47;;;;;;;4.47;3.58;;;37.70;33.70;;;;;;4343867;32;20069;-38
2021/07/31 12:51:14;;;;;;;3.60;3.30;;;37.70;34.00;;;;;;4344322;32;20088;-37
2021/07/31 12:53:40;;;;;;;7.68;3.70;;;37.70;34.00;;;;;;4344476;32;20079;-38